Wichita Mid Continent Airport
KICT : now visible

Airfield :











YOU CAN JOIN US ON...

 
LOGIN :

Register | Disclaimer

   EN    FR    IT 

 









Legend :    VFR   Marginal VFR   IFR   Intensive IFR   Very Intensive IFR
Visi :
Ceiling :
>= 8 km
>= 3000ft
5 to 8 km
1000 to 3000 ft
1500m to 5 km
500 to 1000 ft
800 to 1500m
200 to 500 ft
< 800m
< 200 ft
Symbols :   Thunderstorms  Fog  Heavy snow  Heavy precipitations  Wind > 20 kt






- Airport Elevation : 1333 ft
- IATA code : ICT


KICT - Wichita Mid Continent

CURRENT METAR :
  • 261606Z 01016G24KT 6SM -SN BR BKN013 OVC018 M04/M06 A3038 RMK AO2 P0000 T10391061

EXPIRED METARs :
  • 261553Z 36016G25KT 1/2SM R01L/P6000FT -SN BR BKN013 OVC018 M04/M06 A3037 RMK AO2 PK WND 01026/1516 SFC VIS 6 SLP299 P0001 T10391061
  • 261453Z 01017G23KT 1/2SM R01L/P6000FT SN BR FEW010 OVC015 M04/M06 A3035 RMK AO2 SFC VIS 1 SLP293 P0003 60008 T10441061 50020
  • 261427Z 01013G22KT 1/2SM R01L/3000V3500FT SN FZFG OVC015 M04/M06 A3035 RMK AO2 P0002 T10441056
  • 261410Z 36014G22KT 1 1/4SM R01L/5000VP6000FT -SN BR BKN015 OVC020 M04/M06 A3036 RMK AO2 TWR VIS 3 P0001 T10391061
  • 261353Z 36014G21KT 2SM -SN BR BKN015 OVC020 M04/M06 A3037 RMK AO2 PK WND 36028/1305 SFC VIS 5 PLE28 SLP300 P0002 T10391056 $
  • 261328Z 01015G26KT 2SM -SN BR BKN012 OVC018 M04/M06 A3032 RMK AO2 PK WND 36028/1305 PLE28 P0001 T10391056 $

TAF KICT
Valid from the 26 at 15:00 until the 27 at 12:00 UTC


261440Z 2615/2712 01017G30KT 2SM -SNPL BR SCT010 OVC015
TEMPO 2615/2618 1/2SM SN FG OVC010
FM261800 01015G23KT 2SM -FZRASN BR OVC015
FM262100 01015G23KT 6SM -FZDZSN BR OVC020
FM271100 01012KT P6SM OVC040
KZKC FIR / North America



MET'MAP, your aeronautical weather chart ! - Copyright ORBIFLY December 2007 - Disclaimer

ORBIFLY MET'MAP TEAM :

Programming & Development : Alexandra Zaïnal
Concept & original design : Baudouin d'Aumeries
Assistance for programming : Marc-Olivier Méhu
Technical & hardware support : Manuel Goepfert

Contact : metmap@orbifly.com




SOURCES & CREDITS :

   NOAA       Earth
Advisory